DLH9AC LDDU-EDDM
Flight info
| Callsign | DLH9AC |
|---|---|
| Flight time | 1h 17m |
| Altitude | 34000 |
| Route | AMUGO DCT SIRMI DCT DARZA DCT LUMUS DCT RASTA DCT REDBU Q112 NAPSA NAPSA4A |
| Aircraft | A321/M-SDE2E3FGIJ1LORWXYZ/HB1 |
Departure
| Time | 2026-05-04 16:35 |
|---|---|
| Airport | Dubrovnik Ruđer Bošković Airport (LDDU) |
Arrival
| Time | 2026-05-04 17:52 |
|---|---|
| Airport | Munich Airport (EDDM) |
| Time | Latitude | Longitude | Altitude | Speed | Heading |
|---|---|---|---|---|---|
| 2026-05-04 15:32 | 42.56009 | 18.26511 | 523 ft | 0 kts | 207° |
| 2026-05-04 16:26 | 42.56026 | 18.26524 | 523 ft | 1 kts | 207° |
| 2026-05-04 16:27 | 42.56050 | 18.26531 | 523 ft | 2 kts | 168° |
| 2026-05-04 16:28 | 42.56076 | 18.26503 | 523 ft | 1 kts | 116° |
| 2026-05-04 16:28 | 42.56076 | 18.26502 | 523 ft | 0 kts | 117° |
| 2026-05-04 16:31 | 42.55983 | 18.26741 | 523 ft | 22 kts | 118° |
| 2026-05-04 16:31 | 42.55767 | 18.27286 | 518 ft | 22 kts | 118° |
| 2026-05-04 16:32 | 42.55513 | 18.27923 | 496 ft | 27 kts | 119° |
| 2026-05-04 16:33 | 42.55520 | 18.28157 | 495 ft | 10 kts | 23° |
| 2026-05-04 16:33 | 42.55609 | 18.28156 | 495 ft | 0 kts | 296° |
| 2026-05-04 16:34 | 42.55714 | 18.27887 | 502 ft | 68 kts | 299° |
| 2026-05-04 16:34 | 42.56046 | 18.27049 | 524 ft | 131 kts | 297° |
| 2026-05-04 16:35 | 42.57553 | 18.23136 | 2131 ft | 156 kts | 298° |
| 2026-05-04 16:35 | 42.59257 | 18.18940 | 2996 ft | 188 kts | 299° |
| 2026-05-04 16:36 | 42.59896 | 18.17323 | 3276 ft | 202 kts | 299° |
| 2026-05-04 16:36 | 42.61352 | 18.13636 | 3861 ft | 239 kts | 299° |
| 2026-05-04 16:37 | 42.63027 | 18.09385 | 4749 ft | 268 kts | 299° |
| 2026-05-04 16:37 | 42.63897 | 18.07173 | 5477 ft | 270 kts | 300° |
| 2026-05-04 16:37 | 42.65678 | 18.02642 | 7018 ft | 276 kts | 300° |
| 2026-05-04 16:38 | 42.67497 | 17.98018 | 8486 ft | 283 kts | 301° |
| 2026-05-04 16:39 | 42.70932 | 17.91494 | 10557 ft | 290 kts | 325° |
| 2026-05-04 16:39 | 42.74336 | 17.88064 | 11205 ft | 323 kts | 326° |
| 2026-05-04 16:40 | 42.78055 | 17.84186 | 11999 ft | 347 kts | 324° |
| 2026-05-04 16:40 | 42.81879 | 17.80072 | 13321 ft | 352 kts | 324° |
| 2026-05-04 16:41 | 42.85728 | 17.75884 | 14616 ft | 358 kts | 324° |
| 2026-05-04 16:41 | 42.91613 | 17.69447 | 16449 ft | 367 kts | 323° |
| 2026-05-04 16:42 | 42.97631 | 17.62835 | 18115 ft | 375 kts | 323° |
| 2026-05-04 16:43 | 43.01730 | 17.58322 | 19254 ft | 380 kts | 323° |
| 2026-05-04 16:43 | 43.05873 | 17.53752 | 20289 ft | 385 kts | 323° |
| 2026-05-04 16:43 | 43.07954 | 17.51454 | 20774 ft | 388 kts | 323° |
| 2026-05-04 16:44 | 43.16407 | 17.42131 | 22692 ft | 396 kts | 323° |
| 2026-05-04 16:45 | 43.20726 | 17.37348 | 23599 ft | 400 kts | 323° |
| 2026-05-04 16:46 | 43.27222 | 17.30105 | 24855 ft | 406 kts | 322° |
| 2026-05-04 16:46 | 43.31628 | 17.25172 | 25658 ft | 409 kts | 322° |
| 2026-05-04 16:47 | 43.36029 | 17.20249 | 26392 ft | 412 kts | 322° |
| 2026-05-04 16:47 | 43.40505 | 17.15234 | 27125 ft | 415 kts | 321° |
| 2026-05-04 16:48 | 43.47229 | 17.07685 | 28148 ft | 420 kts | 321° |
| 2026-05-04 16:48 | 43.49488 | 17.05145 | 28474 ft | 421 kts | 321° |
| 2026-05-04 16:49 | 43.54023 | 17.00036 | 29079 ft | 424 kts | 321° |
| 2026-05-04 16:49 | 43.58569 | 16.94906 | 29829 ft | 423 kts | 321° |
| 2026-05-04 16:50 | 43.63111 | 16.89770 | 30684 ft | 419 kts | 321° |
| 2026-05-04 16:50 | 43.67588 | 16.84699 | 31461 ft | 416 kts | 321° |
| 2026-05-04 16:51 | 43.72046 | 16.79638 | 32220 ft | 413 kts | 321° |
| 2026-05-04 16:51 | 43.74247 | 16.77136 | 32559 ft | 412 kts | 321° |
| 2026-05-04 16:51 | 43.78673 | 16.72096 | 33102 ft | 413 kts | 321° |
| 2026-05-04 16:52 | 43.83105 | 16.67040 | 33596 ft | 415 kts | 320° |
| 2026-05-04 16:52 | 43.85338 | 16.64486 | 33833 ft | 415 kts | 320° |
| 2026-05-04 16:53 | 43.89778 | 16.59406 | 34171 ft | 417 kts | 320° |
| 2026-05-04 16:54 | 43.98724 | 16.49138 | 34188 ft | 417 kts | 320° |
| 2026-05-04 16:55 | 44.12143 | 16.33670 | 34171 ft | 419 kts | 320° |
| 2026-05-04 16:56 | 44.24015 | 16.21887 | 34174 ft | 419 kts | 325° |
| 2026-05-04 16:57 | 44.31260 | 16.15074 | 34167 ft | 421 kts | 325° |
| 2026-05-04 16:58 | 44.40936 | 16.05933 | 34159 ft | 421 kts | 325° |
| 2026-05-04 17:00 | 44.55495 | 15.92106 | 34152 ft | 423 kts | 325° |
| 2026-05-04 17:01 | 44.67635 | 15.80512 | 34150 ft | 423 kts | 325° |
| 2026-05-04 17:02 | 44.77371 | 15.71167 | 34144 ft | 424 kts | 325° |
| 2026-05-04 17:03 | 44.84655 | 15.64153 | 34143 ft | 424 kts | 325° |
| 2026-05-04 17:03 | 44.91958 | 15.57100 | 34148 ft | 425 kts | 325° |
| 2026-05-04 17:04 | 45.01713 | 15.47640 | 34146 ft | 425 kts | 325° |
| 2026-05-04 17:05 | 45.11445 | 15.38167 | 34142 ft | 426 kts | 325° |
| 2026-05-04 17:06 | 45.18771 | 15.31025 | 34141 ft | 426 kts | 324° |
| 2026-05-04 17:07 | 45.25230 | 15.24677 | 34135 ft | 426 kts | 324° |
| 2026-05-04 17:07 | 45.30909 | 15.19093 | 34132 ft | 427 kts | 324° |
| 2026-05-04 17:08 | 45.38232 | 15.11877 | 34133 ft | 426 kts | 324° |
| 2026-05-04 17:09 | 45.43097 | 15.07071 | 34135 ft | 427 kts | 324° |
| 2026-05-04 17:09 | 45.47998 | 15.02254 | 34132 ft | 427 kts | 326° |
| 2026-05-04 17:10 | 45.61024 | 14.91927 | 34130 ft | 429 kts | 330° |
| 2026-05-04 17:11 | 45.66320 | 14.87887 | 34127 ft | 429 kts | 330° |
| 2026-05-04 17:12 | 45.74203 | 14.81853 | 34131 ft | 430 kts | 330° |
| 2026-05-04 17:13 | 45.87394 | 14.71705 | 34124 ft | 431 kts | 330° |
| 2026-05-04 17:14 | 45.97977 | 14.63523 | 34121 ft | 432 kts | 330° |
| 2026-05-04 17:15 | 46.05868 | 14.57400 | 34119 ft | 432 kts | 330° |
| 2026-05-04 17:16 | 46.16481 | 14.49157 | 34115 ft | 433 kts | 330° |
| 2026-05-04 17:17 | 46.27053 | 14.40901 | 34124 ft | 433 kts | 330° |
| 2026-05-04 17:18 | 46.37649 | 14.32562 | 34147 ft | 434 kts | 329° |
| 2026-05-04 17:19 | 46.48260 | 14.24156 | 34161 ft | 434 kts | 329° |
| 2026-05-04 17:19 | 46.53558 | 14.19962 | 33724 ft | 433 kts | 329° |
| 2026-05-04 17:20 | 46.58809 | 14.15794 | 33169 ft | 428 kts | 329° |
| 2026-05-04 17:20 | 46.63924 | 14.11539 | 32624 ft | 425 kts | 328° |
| 2026-05-04 17:20 | 46.66498 | 14.09356 | 32348 ft | 426 kts | 328° |
| 2026-05-04 17:21 | 46.71616 | 14.05020 | 31799 ft | 427 kts | 328° |
| 2026-05-04 17:21 | 46.76759 | 14.00664 | 31249 ft | 428 kts | 328° |
| 2026-05-04 17:22 | 46.79335 | 13.98480 | 30975 ft | 429 kts | 328° |
| 2026-05-04 17:22 | 46.81885 | 13.96318 | 30706 ft | 429 kts | 328° |
| 2026-05-04 17:23 | 46.89654 | 13.89723 | 29724 ft | 431 kts | 328° |
| 2026-05-04 17:23 | 46.92249 | 13.87514 | 29377 ft | 433 kts | 328° |
| 2026-05-04 17:23 | 46.97448 | 13.83083 | 28688 ft | 435 kts | 328° |
| 2026-05-04 17:24 | 47.00043 | 13.80868 | 28344 ft | 433 kts | 328° |
| 2026-05-04 17:24 | 47.07800 | 13.74232 | 27315 ft | 428 kts | 328° |
| 2026-05-04 17:25 | 47.10360 | 13.72037 | 26972 ft | 426 kts | 328° |
| 2026-05-04 17:25 | 47.15458 | 13.67681 | 26291 ft | 423 kts | 328° |
| 2026-05-04 17:26 | 47.20539 | 13.63322 | 25611 ft | 420 kts | 328° |
| 2026-05-04 17:26 | 47.28045 | 13.56846 | 24587 ft | 415 kts | 328° |
| 2026-05-04 17:27 | 47.33007 | 13.52550 | 23890 ft | 412 kts | 328° |
| 2026-05-04 17:27 | 47.37910 | 13.48295 | 23209 ft | 409 kts | 328° |
| 2026-05-04 17:28 | 47.42795 | 13.44048 | 22546 ft | 406 kts | 328° |
| 2026-05-04 17:29 | 47.49940 | 13.37467 | 21559 ft | 400 kts | 323° |
| 2026-05-04 17:29 | 47.56421 | 13.29836 | 20566 ft | 395 kts | 318° |
| 2026-05-04 17:30 | 47.62738 | 13.22118 | 19560 ft | 391 kts | 318° |
| 2026-05-04 17:31 | 47.66933 | 13.17003 | 18892 ft | 387 kts | 318° |
| 2026-05-04 17:31 | 47.73138 | 13.09426 | 17876 ft | 383 kts | 318° |
| 2026-05-04 17:32 | 47.77205 | 13.04448 | 17232 ft | 380 kts | 318° |
| 2026-05-04 17:33 | 47.83283 | 12.96991 | 16243 ft | 375 kts | 318° |
| 2026-05-04 17:33 | 47.85291 | 12.94522 | 15909 ft | 374 kts | 318° |
| 2026-05-04 17:34 | 47.91272 | 12.87153 | 14924 ft | 370 kts | 318° |
| 2026-05-04 17:34 | 47.93226 | 12.84718 | 14622 ft | 368 kts | 316° |
| 2026-05-04 17:35 | 47.97969 | 12.75878 | 14010 ft | 363 kts | 299° |
| 2026-05-04 17:35 | 48.00528 | 12.69407 | 14023 ft | 363 kts | 298° |
| 2026-05-04 17:35 | 48.01810 | 12.66152 | 14016 ft | 363 kts | 299° |
| 2026-05-04 17:36 | 48.03091 | 12.62913 | 14013 ft | 363 kts | 299° |
| 2026-05-04 17:36 | 48.04378 | 12.59661 | 14010 ft | 363 kts | 299° |
| 2026-05-04 17:36 | 48.05662 | 12.56417 | 14008 ft | 363 kts | 299° |
| 2026-05-04 17:36 | 48.06938 | 12.53215 | 14010 ft | 363 kts | 299° |
| 2026-05-04 17:37 | 48.08244 | 12.49956 | 14010 ft | 364 kts | 300° |
| 2026-05-04 17:37 | 48.09551 | 12.46697 | 13999 ft | 364 kts | 299° |
| 2026-05-04 17:37 | 48.10851 | 12.43455 | 13760 ft | 362 kts | 299° |
| 2026-05-04 17:37 | 48.11958 | 12.40120 | 13508 ft | 350 kts | 291° |
| 2026-05-04 17:38 | 48.12841 | 12.36764 | 13223 ft | 342 kts | 289° |
| 2026-05-04 17:38 | 48.13679 | 12.33456 | 12929 ft | 340 kts | 288° |
| 2026-05-04 17:38 | 48.14516 | 12.30175 | 12632 ft | 338 kts | 289° |
| 2026-05-04 17:38 | 48.15372 | 12.26879 | 12333 ft | 338 kts | 289° |
| 2026-05-04 17:39 | 48.17095 | 12.20365 | 11746 ft | 336 kts | 289° |
| 2026-05-04 17:39 | 48.17961 | 12.17111 | 11452 ft | 335 kts | 289° |
| 2026-05-04 17:39 | 48.18816 | 12.13909 | 11165 ft | 333 kts | 290° |
| 2026-05-04 17:40 | 48.19672 | 12.10699 | 11017 ft | 332 kts | 289° |
| 2026-05-04 17:40 | 48.20529 | 12.07482 | 11013 ft | 333 kts | 289° |
| 2026-05-04 17:40 | 48.21394 | 12.04233 | 11011 ft | 333 kts | 290° |
| 2026-05-04 17:40 | 48.22249 | 12.01017 | 11014 ft | 334 kts | 290° |
| 2026-05-04 17:41 | 48.23100 | 11.97808 | 11013 ft | 333 kts | 289° |
| 2026-05-04 17:41 | 48.23959 | 11.94568 | 11009 ft | 333 kts | 290° |
| 2026-05-04 17:41 | 48.24811 | 11.91348 | 10673 ft | 332 kts | 290° |
| 2026-05-04 17:41 | 48.25585 | 11.88083 | 10288 ft | 327 kts | 282° |
| 2026-05-04 17:42 | 48.25938 | 11.84826 | 9906 ft | 313 kts | 271° |
| 2026-05-04 17:42 | 48.25897 | 11.81626 | 9525 ft | 295 kts | 262° |
| 2026-05-04 17:42 | 48.25675 | 11.78645 | 9150 ft | 281 kts | 261° |
| 2026-05-04 17:42 | 48.25450 | 11.75975 | 8801 ft | 274 kts | 261° |
| 2026-05-04 17:43 | 48.25210 | 11.73128 | 8440 ft | 273 kts | 261° |
| 2026-05-04 17:43 | 48.24979 | 11.70322 | 8090 ft | 274 kts | 262° |
| 2026-05-04 17:43 | 48.24749 | 11.67469 | 7713 ft | 274 kts | 262° |
| 2026-05-04 17:43 | 48.24524 | 11.64643 | 7351 ft | 274 kts | 262° |
| 2026-05-04 17:44 | 48.24298 | 11.61811 | 6934 ft | 276 kts | 263° |
| 2026-05-04 17:44 | 48.24073 | 11.58981 | 6441 ft | 272 kts | 263° |
| 2026-05-04 17:44 | 48.23856 | 11.56214 | 6103 ft | 262 kts | 263° |
| 2026-05-04 17:44 | 48.23644 | 11.53529 | 5737 ft | 258 kts | 263° |
| 2026-05-04 17:45 | 48.23434 | 11.50874 | 5386 ft | 259 kts | 263° |
| 2026-05-04 17:45 | 48.23222 | 11.48200 | 5110 ft | 256 kts | 263° |
| 2026-05-04 17:45 | 48.23009 | 11.45521 | 4993 ft | 258 kts | 264° |
| 2026-05-04 17:45 | 48.22869 | 11.42861 | 4735 ft | 256 kts | 276° |
| 2026-05-04 17:46 | 48.23431 | 11.40368 | 4476 ft | 251 kts | 307° |
| 2026-05-04 17:46 | 48.24718 | 11.38717 | 4223 ft | 245 kts | 339° |
| 2026-05-04 17:46 | 48.26361 | 11.38342 | 4084 ft | 239 kts | 11° |
| 2026-05-04 17:46 | 48.27854 | 11.39335 | 4070 ft | 232 kts | 42° |
| 2026-05-04 17:47 | 48.28919 | 11.41058 | 4064 ft | 218 kts | 52° |
| 2026-05-04 17:47 | 48.29784 | 11.42855 | 4052 ft | 205 kts | 58° |
| 2026-05-04 17:47 | 48.30510 | 11.44596 | 4154 ft | 203 kts | 59° |
| 2026-05-04 17:47 | 48.31271 | 11.46510 | 4119 ft | 214 kts | 62° |
| 2026-05-04 17:48 | 48.31817 | 11.48519 | 4072 ft | 199 kts | 73° |
| 2026-05-04 17:48 | 48.32120 | 11.50517 | 4073 ft | 198 kts | 78° |
| 2026-05-04 17:48 | 48.32354 | 11.52562 | 4072 ft | 198 kts | 81° |
| 2026-05-04 17:48 | 48.32541 | 11.54623 | 4036 ft | 194 kts | 82° |
| 2026-05-04 17:49 | 48.32692 | 11.56576 | 3848 ft | 185 kts | 83° |
| 2026-05-04 17:49 | 48.32830 | 11.58470 | 3604 ft | 180 kts | 83° |
| 2026-05-04 17:49 | 48.32962 | 11.60302 | 3367 ft | 172 kts | 83° |
| 2026-05-04 17:49 | 48.33087 | 11.62032 | 3141 ft | 164 kts | 83° |
| 2026-05-04 17:50 | 48.33213 | 11.63732 | 2935 ft | 164 kts | 82° |
| 2026-05-04 17:50 | 48.33337 | 11.65402 | 2752 ft | 153 kts | 83° |
| 2026-05-04 17:50 | 48.33452 | 11.66939 | 2543 ft | 147 kts | 83° |
| 2026-05-04 17:50 | 48.33567 | 11.68474 | 2357 ft | 149 kts | 82° |
| 2026-05-04 17:51 | 48.33685 | 11.70037 | 2169 ft | 149 kts | 82° |
| 2026-05-04 17:51 | 48.33812 | 11.71564 | 1972 ft | 148 kts | 84° |
| 2026-05-04 17:51 | 48.33917 | 11.73115 | 1781 ft | 149 kts | 83° |
| 2026-05-04 17:51 | 48.34033 | 11.74658 | 1581 ft | 148 kts | 82° |
| 2026-05-04 17:52 | 48.34147 | 11.76157 | 1490 ft | 135 kts | 82° |
| 2026-05-04 17:52 | 48.34235 | 11.77310 | 1487 ft | 85 kts | 83° |
| 2026-05-04 17:52 | 48.34287 | 11.77960 | 1485 ft | 39 kts | 83° |
| 2026-05-04 17:52 | 48.34352 | 11.78287 | 1484 ft | 30 kts | 62° |
| 2026-05-04 17:53 | 48.34466 | 11.78534 | 1483 ft | 27 kts | 52° |
| 2026-05-04 17:53 | 48.34568 | 11.78735 | 1482 ft | 22 kts | 53° |
| 2026-05-04 17:53 | 48.34633 | 11.78919 | 1481 ft | 19 kts | 83° |
| 2026-05-04 17:53 | 48.34646 | 11.79110 | 1481 ft | 17 kts | 84° |
| 2026-05-04 17:54 | 48.34661 | 11.79287 | 1480 ft | 16 kts | 83° |
| 2026-05-04 17:54 | 48.34672 | 11.79426 | 1479 ft | 6 kts | 83° |
| 2026-05-04 17:54 | 48.34672 | 11.79429 | 1479 ft | 0 kts | 83° |
| 2026-05-04 18:00 | 48.34681 | 11.79543 | 1478 ft | 18 kts | 83° |
| 2026-05-04 18:00 | 48.34709 | 11.79705 | 1478 ft | 13 kts | 25° |
| 2026-05-04 18:00 | 48.34797 | 11.79703 | 1477 ft | 8 kts | 353° |
| 2026-05-04 18:01 | 48.34858 | 11.79693 | 1477 ft | 8 kts | 354° |
| 2026-05-04 18:01 | 48.34921 | 11.79682 | 1477 ft | 11 kts | 354° |
| 2026-05-04 18:01 | 48.35047 | 11.79661 | 1477 ft | 19 kts | 353° |
| 2026-05-04 18:02 | 48.35274 | 11.79620 | 1476 ft | 13 kts | 353° |
| 2026-05-04 18:02 | 48.35308 | 11.79640 | 1476 ft | 5 kts | 66° |